createdAt,value
2018-02-13T00:01:47.682Z,81.11
2018-02-13T00:04:15.202Z,81.33
2018-02-13T00:06:43.619Z,81.36
2018-02-13T00:09:11.090Z,81.86
2018-02-13T00:11:38.594Z,82.12
2018-02-13T00:14:06.153Z,82.32
2018-02-13T00:16:33.627Z,82.02
2018-02-13T00:19:01.110Z,82.51
2018-02-13T00:21:28.610Z,83.11
2018-02-13T00:23:56.094Z,83.32
2018-02-13T00:26:23.591Z,83.42
2018-02-13T00:28:51.111Z,83.42
2018-02-13T00:31:18.600Z,83.85
2018-02-13T00:33:46.075Z,83.93
2018-02-13T00:36:13.565Z,84.00
2018-02-13T00:38:41.052Z,83.94
2018-02-13T00:41:08.528Z,83.82
2018-02-13T00:43:36.007Z,83.58
2018-02-13T00:46:03.514Z,83.37
2018-02-13T00:48:31.036Z,83.21
2018-02-13T00:50:58.513Z,83.24
2018-02-13T00:53:25.997Z,83.22
2018-02-13T00:55:53.478Z,83.21
2018-02-13T00:58:20.959Z,83.27
2018-02-13T01:00:48.456Z,83.36
2018-02-13T01:03:15.927Z,83.14
2018-02-13T01:05:43.426Z,82.86
2018-02-13T01:08:10.907Z,82.72
2018-02-13T01:10:38.399Z,82.62
2018-02-13T01:13:05.882Z,82.61
2018-02-13T01:15:33.362Z,82.60
2018-02-13T01:18:00.850Z,82.70
2018-02-13T01:20:28.341Z,82.88
2018-02-13T01:22:55.810Z,83.00
2018-02-13T01:25:23.314Z,83.02
2018-02-13T01:27:50.798Z,82.98
2018-02-13T01:30:18.288Z,82.91
2018-02-13T01:32:45.762Z,82.88
2018-02-13T01:35:13.255Z,82.79
2018-02-13T01:37:40.739Z,82.72
2018-02-13T01:40:08.216Z,82.66
2018-02-13T01:42:35.710Z,82.66
2018-02-13T01:45:03.195Z,82.64
2018-02-13T01:47:30.669Z,82.58
2018-02-13T01:49:58.149Z,82.55
2018-02-13T01:52:25.645Z,82.29
2018-02-13T01:54:53.113Z,82.15
2018-02-13T01:57:20.597Z,82.24
2018-02-13T01:59:48.115Z,82.26
2018-02-13T02:02:21.339Z,82.36
2018-02-13T02:04:48.826Z,82.30
2018-02-13T02:07:16.327Z,82.29
2018-02-13T02:09:43.801Z,82.16
2018-02-13T02:12:11.281Z,81.94
2018-02-13T02:14:38.748Z,81.80
2018-02-13T02:17:06.218Z,81.69
2018-02-13T02:19:33.814Z,81.49
2018-02-13T02:22:01.298Z,81.34
2018-02-13T02:24:28.762Z,81.21
2018-02-13T02:26:56.250Z,81.11
2018-02-13T02:29:23.770Z,81.17
2018-02-13T02:31:51.247Z,81.19
2018-02-13T02:34:18.727Z,81.29
2018-02-13T02:36:46.218Z,81.43
2018-02-13T02:39:13.696Z,81.55
2018-02-13T02:41:41.163Z,81.76
2018-02-13T02:44:08.637Z,81.93
2018-02-13T02:46:36.103Z,82.03
2018-02-13T02:49:03.592Z,82.09
2018-02-13T02:51:31.068Z,82.06
2018-02-13T02:53:58.562Z,82.06
2018-02-13T02:56:26.047Z,82.00
2018-02-13T02:58:53.515Z,81.87
2018-02-13T03:01:20.979Z,81.81
2018-02-13T03:03:48.454Z,81.64
2018-02-13T03:06:15.934Z,81.66
2018-02-13T03:08:43.426Z,81.66
2018-02-13T03:11:10.906Z,81.59
2018-02-13T03:13:38.404Z,81.64
2018-02-13T03:16:05.886Z,81.67
2018-02-13T03:18:33.363Z,81.82
2018-02-13T03:21:00.835Z,81.95
2018-02-13T03:23:28.314Z,82.06
2018-02-13T03:25:55.787Z,82.18
2018-02-13T03:28:23.263Z,82.29
2018-02-13T03:30:50.739Z,82.39
2018-02-13T03:33:18.202Z,82.47
2018-02-13T03:35:45.683Z,82.52
2018-02-13T03:38:13.183Z,82.54
2018-02-13T03:40:40.690Z,82.64
2018-02-13T03:43:08.168Z,82.82
2018-02-13T03:45:35.651Z,82.99
2018-02-13T03:48:03.130Z,83.01
2018-02-13T03:50:30.602Z,82.93
2018-02-13T03:52:58.074Z,83.06
2018-02-13T03:55:25.546Z,83.19
2018-02-13T03:57:53.003Z,83.36
2018-02-13T04:00:20.498Z,83.43
2018-02-13T04:02:47.976Z,83.55
2018-02-13T04:05:15.454Z,83.89
2018-02-13T04:07:42.931Z,84.19
2018-02-13T04:10:10.446Z,84.56
2018-02-13T04:12:37.919Z,84.75
2018-02-13T04:15:05.402Z,85.03
2018-02-13T04:17:32.907Z,85.24
2018-02-13T04:20:00.383Z,85.57
2018-02-13T04:22:27.867Z,85.76
2018-02-13T04:24:55.339Z,85.98
2018-02-13T04:27:22.810Z,86.15
2018-02-13T04:29:50.287Z,86.32
2018-02-13T04:32:17.759Z,86.33
2018-02-13T04:34:45.250Z,86.66
2018-02-13T04:37:12.744Z,86.79
2018-02-13T04:39:40.218Z,86.96
2018-02-13T04:42:07.702Z,87.22
2018-02-13T04:44:35.182Z,87.46
2018-02-13T04:47:02.677Z,87.53
2018-02-13T04:49:30.151Z,87.54
2018-02-13T04:51:57.647Z,87.35
2018-02-13T04:54:25.128Z,87.45
2018-02-13T04:56:52.611Z,87.51
2018-02-13T04:59:20.083Z,87.71
2018-02-13T05:01:47.567Z,87.69
2018-02-13T05:04:15.044Z,87.67
2018-02-13T05:06:42.539Z,87.74
2018-02-13T05:09:10.013Z,87.84
2018-02-13T05:11:37.495Z,87.74
2018-02-13T05:14:04.970Z,87.75
2018-02-13T05:16:32.441Z,87.84
2018-02-13T05:18:59.925Z,87.84
2018-02-13T05:21:27.411Z,87.86
2018-02-13T05:23:54.891Z,87.78
2018-02-13T05:26:22.392Z,87.71
2018-02-13T05:28:49.874Z,87.69
2018-02-13T05:31:17.358Z,87.65
2018-02-13T05:33:44.832Z,87.65
2018-02-13T05:36:12.323Z,87.69
2018-02-13T05:38:39.804Z,87.57
2018-02-13T05:41:07.278Z,87.44
2018-02-13T05:43:34.750Z,87.36
2018-02-13T05:46:02.248Z,87.37
2018-02-13T05:48:29.723Z,87.29
2018-02-13T05:50:57.237Z,87.21
2018-02-13T05:53:24.714Z,87.27
2018-02-13T05:55:52.203Z,87.18
2018-02-13T05:58:19.686Z,87.20
2018-02-13T06:00:47.146Z,87.28
2018-02-13T06:03:14.623Z,87.24
2018-02-13T06:05:42.102Z,87.21
2018-02-13T06:08:09.617Z,87.20
2018-02-13T06:10:37.136Z,87.31
2018-02-13T06:13:04.611Z,87.52
2018-02-13T06:15:32.094Z,87.80
2018-02-13T06:17:59.574Z,87.91
2018-02-13T06:20:27.050Z,87.71
2018-02-13T06:22:54.552Z,87.62
2018-02-13T06:25:22.029Z,87.66
2018-02-13T06:27:49.522Z,87.72
2018-02-13T06:30:16.998Z,87.86
2018-02-13T06:32:44.474Z,88.09
2018-02-13T06:35:11.956Z,88.51
2018-02-13T06:37:39.437Z,88.50
2018-02-13T06:40:06.947Z,88.35
2018-02-13T06:42:34.427Z,88.46
2018-02-13T06:45:01.914Z,88.55
2018-02-13T06:47:29.390Z,88.54
2018-02-13T06:49:56.860Z,88.55
2018-02-13T06:52:24.384Z,88.69
2018-02-13T06:54:51.854Z,88.76
2018-02-13T06:57:19.349Z,88.85
2018-02-13T06:59:46.822Z,89.00
2018-02-13T07:02:14.298Z,89.17
2018-02-13T07:04:41.783Z,89.35
2018-02-13T07:07:09.316Z,89.74
2018-02-13T07:09:36.809Z,89.81
2018-02-13T07:12:04.286Z,89.80
2018-02-13T07:14:31.762Z,89.64
2018-02-13T07:16:59.263Z,89.72
2018-02-13T07:19:26.749Z,89.87
2018-02-13T07:21:54.329Z,89.79
2018-02-13T07:24:21.815Z,89.54
2018-02-13T07:26:49.307Z,89.40
2018-02-13T07:29:16.784Z,89.27
2018-02-13T07:31:44.267Z,88.95
2018-02-13T07:34:11.738Z,88.77
2018-02-13T07:36:39.251Z,88.66
2018-02-13T07:39:07.859Z,88.59
2018-02-13T07:41:35.351Z,88.05
2018-02-13T07:44:02.833Z,87.55
2018-02-13T07:46:30.320Z,87.22
2018-02-13T07:48:57.813Z,87.13
2018-02-13T07:51:25.280Z,87.23
2018-02-13T07:53:52.763Z,87.28
2018-02-13T07:56:20.230Z,87.34
2018-02-13T07:58:47.708Z,87.47
2018-02-13T08:01:15.203Z,87.56
2018-02-13T08:03:42.755Z,87.73
2018-02-13T08:06:10.261Z,87.87
2018-02-13T08:08:37.823Z,87.96
2018-02-13T08:11:05.317Z,87.91
2018-02-13T08:13:32.799Z,87.87
2018-02-13T08:16:00.303Z,87.83
2018-02-13T08:18:27.843Z,87.77
2018-02-13T08:20:55.392Z,87.60
2018-02-13T08:23:22.918Z,87.46
2018-02-13T08:25:50.395Z,86.98
2018-02-13T08:28:17.953Z,86.58
2018-02-13T08:30:45.434Z,86.06
2018-02-13T08:33:12.906Z,85.71
2018-02-13T08:35:40.397Z,85.47
2018-02-13T08:38:07.926Z,85.41
2018-02-13T08:40:36.236Z,85.24
2018-02-13T08:43:03.723Z,84.76
2018-02-13T08:45:31.220Z,84.11
2018-02-13T08:47:58.710Z,83.71
2018-02-13T08:50:26.205Z,83.83
2018-02-13T08:52:53.674Z,83.79
2018-02-13T08:55:21.148Z,83.87
2018-02-13T08:57:48.628Z,84.04
2018-02-13T09:00:16.122Z,84.23
2018-02-13T09:02:43.598Z,84.19
2018-02-13T09:05:11.079Z,83.72
2018-02-13T09:07:38.572Z,83.65
2018-02-13T09:10:06.137Z,83.72
2018-02-13T09:12:33.616Z,83.82
2018-02-13T09:15:01.101Z,83.85
2018-02-13T09:17:28.590Z,83.87
2018-02-13T09:19:56.144Z,83.99
2018-02-13T09:22:23.622Z,84.81
2018-02-13T09:24:51.107Z,85.20
2018-02-13T09:27:18.583Z,85.33
2018-02-13T09:29:46.055Z,85.05
2018-02-13T09:32:13.553Z,85.01
2018-02-13T09:34:41.030Z,85.10
2018-02-13T09:37:08.503Z,85.02
2018-02-13T09:39:35.989Z,84.87
2018-02-13T09:42:03.526Z,84.85
2018-02-13T09:44:31.004Z,84.84
2018-02-13T09:46:58.500Z,84.75
2018-02-13T09:49:25.998Z,84.71
2018-02-13T09:51:53.492Z,84.80
2018-02-13T09:54:20.986Z,84.87
2018-02-13T09:56:48.579Z,84.94
2018-02-13T09:59:16.088Z,84.88
2018-02-13T10:01:43.654Z,84.64
2018-02-13T10:04:11.144Z,84.34
2018-02-13T10:06:38.649Z,83.86
2018-02-13T10:09:06.212Z,83.69
2018-02-13T10:11:33.855Z,83.63
2018-02-13T10:14:01.803Z,83.43
2018-02-13T10:16:29.349Z,83.30
2018-02-13T10:18:56.862Z,83.01
2018-02-13T10:21:24.366Z,82.83
2018-02-13T10:23:51.882Z,82.77
2018-02-13T10:26:19.613Z,82.92
2018-02-13T10:28:47.179Z,83.23
2018-02-13T10:31:14.753Z,83.65
2018-02-13T10:33:42.239Z,84.05
2018-02-13T10:36:09.710Z,84.60
2018-02-13T10:38:37.197Z,84.91
2018-02-13T10:41:04.674Z,85.04
2018-02-13T10:43:32.166Z,84.73
2018-02-13T10:46:00.502Z,84.29
2018-02-13T10:48:27.995Z,83.91
2018-02-13T10:50:55.570Z,83.76
2018-02-13T10:53:23.059Z,83.69
2018-02-13T10:55:50.542Z,83.50
2018-02-13T10:58:18.077Z,83.04
2018-02-13T11:00:51.085Z,82.59
2018-02-13T11:03:18.633Z,82.08
2018-02-13T11:05:46.324Z,81.11
2018-02-13T11:08:13.892Z,80.09
2018-02-13T11:10:41.554Z,79.43
2018-02-13T11:13:09.152Z,79.04
2018-02-13T11:15:36.737Z,78.48
2018-02-13T11:18:04.555Z,77.56
2018-02-13T11:20:32.035Z,76.29
2018-02-13T11:22:59.579Z,76.10
2018-02-13T11:25:27.095Z,75.98
2018-02-13T11:27:54.612Z,76.00
2018-02-13T11:30:22.131Z,75.73
2018-02-13T11:32:49.731Z,74.80
2018-02-13T11:35:17.264Z,74.07
2018-02-13T11:37:44.770Z,72.07
2018-02-13T11:40:12.280Z,71.01
2018-02-13T11:42:39.791Z,70.20
2018-02-13T11:45:07.416Z,70.59
2018-02-13T11:47:34.964Z,70.90
2018-02-13T11:50:02.435Z,71.19
2018-02-13T11:52:29.955Z,70.44
2018-02-13T11:54:57.464Z,69.74
2018-02-13T11:57:24.975Z,69.61
2018-02-13T11:59:52.532Z,70.02
2018-02-13T12:02:20.066Z,70.08
2018-02-13T12:04:47.569Z,70.52
2018-02-13T12:07:15.077Z,69.65
2018-02-13T12:09:42.603Z,68.72
2018-02-13T12:12:10.091Z,68.88
2018-02-13T12:14:37.925Z,69.33
2018-02-13T12:17:05.416Z,68.37
2018-02-13T12:19:32.935Z,68.07
2018-02-13T12:22:00.434Z,69.01
2018-02-13T12:24:27.971Z,69.28
2018-02-13T12:26:55.463Z,69.73
2018-02-13T12:29:22.982Z,69.74
2018-02-13T12:31:50.484Z,69.75
2018-02-13T12:34:18.017Z,68.65
2018-02-13T12:36:45.555Z,68.78
2018-02-13T12:39:13.039Z,69.02
2018-02-13T12:41:40.533Z,69.66
2018-02-13T12:44:08.037Z,70.40
2018-02-13T12:46:35.554Z,71.07
2018-02-13T12:49:03.050Z,70.79
2018-02-13T12:51:30.545Z,70.38
2018-02-13T12:56:32.135Z,69.80
2018-02-13T12:58:59.638Z,69.38
2018-02-13T13:01:27.135Z,67.56
2018-02-13T13:03:55.096Z,65.97
2018-02-13T13:06:22.784Z,64.86
2018-02-13T13:08:50.288Z,64.71
2018-02-13T13:11:17.784Z,63.64
2018-02-13T13:13:45.303Z,63.69
2018-02-13T13:16:12.796Z,62.88
2018-02-13T13:18:40.316Z,63.95
2018-02-13T13:21:07.818Z,65.56
2018-02-13T13:23:35.318Z,65.79
2018-02-13T13:26:03.805Z,65.95
2018-02-13T13:28:31.290Z,66.44
2018-02-13T13:30:58.794Z,67.34
2018-02-13T13:33:26.287Z,66.04
2018-02-13T13:35:53.764Z,66.26
2018-02-13T13:38:21.290Z,66.26
2018-02-13T13:40:48.907Z,65.23
2018-02-13T13:43:16.477Z,64.98
2018-02-13T13:45:43.971Z,64.49
2018-02-13T13:48:11.484Z,63.92
2018-02-13T13:50:38.980Z,63.66
2018-02-13T13:53:06.459Z,62.68
2018-02-13T13:55:35.178Z,62.25
2018-02-13T13:58:02.692Z,61.78
2018-02-13T14:00:30.182Z,62.75
2018-02-13T14:02:57.703Z,62.79
2018-02-13T14:05:25.255Z,63.03
2018-02-13T14:07:52.775Z,63.23
2018-02-13T14:10:20.276Z,61.40
2018-02-13T14:12:47.792Z,61.43
2018-02-13T14:15:15.293Z,61.49
2018-02-13T14:17:42.808Z,61.32
2018-02-13T14:20:10.310Z,60.62
2018-02-13T14:22:37.862Z,59.84
2018-02-13T14:25:05.367Z,59.65
2018-02-13T14:27:32.924Z,59.99
2018-02-13T14:30:00.462Z,59.81
2018-02-13T14:32:27.961Z,59.40
2018-02-13T14:34:55.503Z,59.88
2018-02-13T14:37:24.161Z,59.97
2018-02-13T14:39:51.732Z,58.39
2018-02-13T14:42:19.277Z,57.90
2018-02-13T14:44:46.821Z,57.84
2018-02-13T14:47:14.369Z,58.30
2018-02-13T14:49:41.977Z,59.00
2018-02-13T14:52:09.508Z,58.73
2018-02-13T14:54:37.005Z,57.75
2018-02-13T14:57:04.548Z,57.07
2018-02-13T14:59:32.038Z,56.80
2018-02-13T15:01:59.581Z,55.85
2018-02-13T15:04:27.096Z,54.64
2018-02-13T15:06:54.656Z,53.77
2018-02-13T15:09:22.119Z,54.08
2018-02-13T15:11:49.607Z,54.67
2018-02-13T15:14:17.948Z,54.95
2018-02-13T15:16:47.275Z,54.33
2018-02-13T15:19:14.799Z,54.28
2018-02-13T15:21:42.286Z,54.31
2018-02-13T15:24:09.803Z,54.61
2018-02-13T15:26:37.276Z,54.24
2018-02-13T15:29:04.796Z,54.56
2018-02-13T15:31:33.197Z,53.61
2018-02-13T15:34:00.696Z,53.22
2018-02-13T15:36:28.195Z,53.67
2018-02-13T15:38:55.792Z,54.17
2018-02-13T15:41:23.282Z,55.17
2018-02-13T15:43:50.766Z,54.55
2018-02-13T15:46:18.278Z,54.57
2018-02-13T15:48:45.787Z,54.02
2018-02-13T15:51:13.288Z,53.52
2018-02-13T15:53:41.568Z,53.42
2018-02-13T15:56:09.062Z,53.55
2018-02-13T15:58:36.608Z,54.23
2018-02-13T16:01:04.116Z,55.21
2018-02-13T16:03:31.606Z,55.89
2018-02-13T16:05:59.115Z,56.19
2018-02-13T16:08:26.613Z,56.63
2018-02-13T16:10:54.132Z,56.67
2018-02-13T16:13:21.621Z,55.45
2018-02-13T16:15:49.123Z,55.37
2018-02-13T16:18:16.578Z,54.72
2018-02-13T16:20:44.286Z,55.05
2018-02-13T16:23:11.779Z,54.43
2018-02-13T16:25:39.946Z,53.94
2018-02-13T16:28:07.438Z,54.53
2018-02-13T16:30:34.932Z,55.20
2018-02-13T16:33:02.436Z,55.71
2018-02-13T16:35:29.965Z,54.79
2018-02-13T16:37:57.455Z,53.41
2018-02-13T16:40:25.004Z,52.90
2018-02-13T16:42:52.606Z,52.95
2018-02-13T16:45:20.114Z,53.22
2018-02-13T16:47:47.602Z,53.90
2018-02-13T16:50:15.170Z,55.41
2018-02-13T16:52:42.689Z,56.32
2018-02-13T16:55:10.183Z,56.77
2018-02-13T16:57:37.702Z,57.03
2018-02-13T17:00:05.197Z,57.25
2018-02-13T17:02:32.720Z,57.64
2018-02-13T17:05:00.219Z,57.97
2018-02-13T17:07:27.744Z,58.27
2018-02-13T17:09:55.232Z,58.43
2018-02-13T17:12:22.757Z,58.20
2018-02-13T17:14:50.251Z,58.46
2018-02-13T17:17:17.740Z,58.51
2018-02-13T17:19:45.243Z,58.67
2018-02-13T17:22:12.759Z,58.93
2018-02-13T17:24:40.263Z,59.04
2018-02-13T17:27:07.770Z,59.02
2018-02-13T17:29:35.271Z,59.05
2018-02-13T17:32:02.774Z,59.05
2018-02-13T17:34:30.287Z,59.07
2018-02-13T17:36:57.794Z,59.09
2018-02-13T17:39:25.315Z,59.16
2018-02-13T17:41:52.807Z,59.13
2018-02-13T17:44:20.324Z,59.09
2018-02-13T17:46:47.803Z,58.95
2018-02-13T17:49:15.279Z,58.92
2018-02-13T17:51:42.778Z,58.70
2018-02-13T17:54:10.257Z,58.74
2018-02-13T17:56:37.736Z,58.84
2018-02-13T17:59:05.290Z,59.06
2018-02-13T18:01:32.790Z,59.29
2018-02-13T18:04:00.288Z,59.61
2018-02-13T18:06:27.788Z,59.96
2018-02-13T18:08:55.279Z,60.29
2018-02-13T18:11:22.768Z,60.63
2018-02-13T18:13:50.248Z,60.80
2018-02-13T18:16:17.752Z,60.86
2018-02-13T18:18:45.501Z,61.03
2018-02-13T18:21:13.107Z,61.08
2018-02-13T18:23:40.625Z,61.12
2018-02-13T18:26:08.127Z,61.17
2018-02-13T18:28:35.619Z,61.26
2018-02-13T18:31:03.109Z,61.33
2018-02-13T18:33:30.619Z,61.44
2018-02-13T18:35:58.126Z,61.61
2018-02-13T18:38:26.341Z,61.75
2018-02-13T18:40:53.995Z,61.91
2018-02-13T18:43:21.470Z,62.11
2018-02-13T18:45:48.995Z,62.21
2018-02-13T18:48:16.561Z,62.29
2018-02-13T18:50:44.087Z,62.35
2018-02-13T18:55:39.157Z,62.44
2018-02-13T18:58:06.681Z,62.49
2018-02-13T19:00:34.259Z,62.56
2018-02-13T19:03:02.060Z,62.73
2018-02-13T19:05:30.136Z,62.91
2018-02-13T19:07:59.801Z,63.04
2018-02-13T19:10:27.481Z,63.15
2018-02-13T19:12:54.991Z,63.29
2018-02-13T19:15:22.517Z,63.51
2018-02-13T19:17:50.054Z,63.66
2018-02-13T19:20:17.543Z,63.77
2018-02-13T19:22:45.042Z,63.92
2018-02-13T19:25:12.558Z,64.09
2018-02-13T19:27:40.042Z,64.21
2018-02-13T19:30:07.632Z,64.31
2018-02-13T19:32:35.122Z,64.36
2018-02-13T19:35:02.644Z,64.48
2018-02-13T19:37:30.139Z,64.49
2018-02-13T19:39:57.635Z,64.53
2018-02-13T19:42:25.147Z,64.57
2018-02-13T19:44:52.708Z,64.64
2018-02-13T19:47:20.236Z,64.75
2018-02-13T19:49:47.718Z,64.84
2018-02-13T19:52:15.187Z,65.02
2018-02-13T19:54:42.698Z,65.16
2018-02-13T19:57:10.223Z,65.24
2018-02-13T19:59:37.754Z,65.28
2018-02-13T20:02:05.254Z,65.37
2018-02-13T20:04:32.820Z,65.40
2018-02-13T20:07:01.090Z,65.54
2018-02-13T20:09:28.602Z,65.71
2018-02-13T20:11:56.108Z,65.78
2018-02-13T20:14:23.697Z,65.98
2018-02-13T20:16:51.364Z,66.07
2018-02-13T20:19:18.866Z,66.20
2018-02-13T20:21:46.370Z,66.30
2018-02-13T20:24:13.919Z,66.46
2018-02-13T20:26:41.527Z,66.61
2018-02-13T20:29:09.008Z,66.73
2018-02-13T20:31:36.512Z,66.81
2018-02-13T20:34:04.035Z,66.97
2018-02-13T20:36:31.520Z,67.07
2018-02-13T20:38:59.056Z,67.12
2018-02-13T20:41:26.615Z,67.23
2018-02-13T20:43:54.081Z,67.34
2018-02-13T20:46:21.655Z,67.44
2018-02-13T20:48:49.189Z,67.56
2018-02-13T20:51:16.687Z,67.58
2018-02-13T20:53:44.171Z,67.53
2018-02-13T20:56:11.694Z,67.52
2018-02-13T20:58:39.184Z,67.51
2018-02-13T21:01:06.702Z,67.52
2018-02-13T21:03:34.178Z,67.50
2018-02-13T21:06:01.674Z,67.48
2018-02-13T21:08:29.174Z,67.58
2018-02-13T21:10:56.678Z,67.64
2018-02-13T21:13:24.177Z,67.67
2018-02-13T21:15:51.692Z,67.84
2018-02-13T21:18:19.181Z,67.96
2018-02-13T21:20:46.685Z,68.08
2018-02-13T21:23:14.179Z,68.29
2018-02-13T21:25:41.679Z,68.45
2018-02-13T21:28:09.169Z,68.53
2018-02-13T21:30:36.683Z,68.52
2018-02-13T21:33:04.172Z,68.55
2018-02-13T21:35:31.674Z,68.54
2018-02-13T21:37:59.201Z,68.58
2018-02-13T21:40:26.716Z,68.61
2018-02-13T21:42:54.220Z,68.64
2018-02-13T21:45:21.732Z,68.67
2018-02-13T21:47:49.229Z,68.77
2018-02-13T21:50:16.784Z,68.89
2018-02-13T21:52:44.269Z,69.02
2018-02-13T21:55:11.743Z,69.25
2018-02-13T21:57:39.251Z,69.40
2018-02-13T22:00:06.777Z,69.48
2018-02-13T22:02:34.280Z,69.50
2018-02-13T22:05:01.767Z,69.48
2018-02-13T22:07:29.246Z,69.57
2018-02-13T22:09:56.742Z,69.62
2018-02-13T22:12:24.230Z,69.77
2018-02-13T22:14:51.757Z,69.83
2018-02-13T22:17:19.252Z,69.95
2018-02-13T22:19:46.747Z,70.07
2018-02-13T22:22:14.247Z,70.13
2018-02-13T22:24:41.757Z,70.17
2018-02-13T22:27:09.250Z,70.19
2018-02-13T22:29:36.802Z,70.25
2018-02-13T22:32:04.272Z,70.29
2018-02-13T22:34:31.807Z,70.33
2018-02-13T22:36:59.319Z,70.36
2018-02-13T22:39:26.809Z,70.39
2018-02-13T22:41:54.306Z,70.37
2018-02-13T22:44:21.784Z,70.42
2018-02-13T22:46:49.280Z,70.48
2018-02-13T22:49:16.763Z,70.59
2018-02-13T22:51:44.276Z,70.64
2018-02-13T22:54:11.779Z,70.69
2018-02-13T22:56:39.263Z,70.70
2018-02-13T22:59:06.753Z,70.74
2018-02-13T23:01:34.252Z,70.78
2018-02-13T23:04:01.735Z,70.90
2018-02-13T23:06:29.244Z,70.94
2018-02-13T23:08:56.734Z,70.94
2018-02-13T23:11:24.246Z,71.00
2018-02-13T23:13:51.734Z,71.10
2018-02-13T23:16:19.210Z,71.12
2018-02-13T23:18:46.695Z,71.21
2018-02-13T23:21:14.184Z,71.23
2018-02-13T23:23:41.679Z,71.22
2018-02-13T23:26:09.155Z,71.20
2018-02-13T23:28:36.648Z,71.20
2018-02-13T23:31:04.139Z,71.26
2018-02-13T23:33:31.631Z,71.35
2018-02-13T23:35:59.150Z,71.42
2018-02-13T23:38:26.632Z,71.44
2018-02-13T23:40:54.124Z,71.55
2018-02-13T23:43:21.620Z,71.68
2018-02-13T23:45:49.170Z,71.82
2018-02-13T23:48:16.654Z,71.98
2018-02-13T23:50:44.152Z,72.11
2018-02-13T23:53:11.626Z,72.19
2018-02-13T23:55:39.119Z,72.25
2018-02-13T23:58:06.607Z,72.33
